Terminal Aerodrome Forecast
Issued by NWS Central Illinois

Home | Current Version | Previous Version | Text Only | Print | Product List | Glossary On
Versions: 1 2 3 4 5 6 7 8 9 10 11 12 13 14 15 16 17 18 19 20 21 22 23 24 25
688
FTUS43 KILX 011510 AAA
TAFPIA
TAF AMD
KPIA 011510Z 0115/0212 04006KT 4SM BR OVC005
     FM011600 04009KT 6SM BR OVC008
     FM012000 02005KT P6SM VCTS OVC012CB
     FM020000 01007KT 5SM BR OVC007=

USA.gov is the U.S. government's official web portal to all federal, state and local government web resources and services.